createdAt,value
2018-07-21T00:00:52.117Z,78.46
2018-07-21T00:01:52.112Z,79.33
2018-07-21T00:03:45.045Z,80.58
2018-07-21T00:04:45.064Z,81.16
2018-07-21T00:06:38.012Z,82.32
2018-07-21T00:07:38.008Z,83.73
2018-07-21T00:09:30.941Z,85.94
2018-07-21T00:10:30.958Z,86.43
2018-07-21T00:12:23.908Z,90.05
2018-07-21T00:13:23.907Z,90.24
2018-07-21T00:15:16.836Z,91.50
2018-07-21T00:16:16.858Z,92.17
2018-07-21T00:18:09.808Z,93.33
2018-07-21T00:19:09.806Z,94.24
2018-07-21T00:21:02.752Z,96.85
2018-07-21T00:22:02.752Z,98.00
2018-07-21T00:23:55.684Z,97.42
2018-07-21T00:24:55.700Z,97.52
2018-07-21T00:26:48.645Z,95.79
2018-07-21T00:27:48.646Z,95.89
2018-07-21T00:29:41.576Z,97.04
2018-07-21T00:30:41.593Z,97.04
2018-07-21T00:32:34.548Z,92.71
2018-07-21T00:33:34.544Z,91.20
2018-07-21T00:35:27.481Z,90.92
2018-07-21T00:36:27.505Z,91.88
2018-07-21T00:38:20.445Z,94.34
2018-07-21T00:39:20.442Z,94.78
2018-07-21T00:41:13.390Z,95.06
2018-07-21T00:42:13.389Z,96.41
2018-07-21T00:44:06.317Z,96.32
2018-07-21T00:45:06.343Z,96.22
2018-07-21T00:46:59.294Z,98.34
2018-07-21T00:47:59.287Z,98.25
2018-07-21T00:49:52.223Z,99.99
2018-07-21T00:50:52.240Z,99.99
2018-07-21T00:52:45.192Z,99.99
2018-07-21T00:53:45.194Z,99.99
2018-07-21T00:55:38.124Z,99.99
2018-07-21T00:56:38.140Z,99.99
2018-07-21T00:58:31.091Z,99.99
2018-07-21T00:59:31.088Z,99.99
2018-07-21T01:01:24.042Z,99.99
2018-07-21T01:02:24.034Z,99.99
2018-07-21T01:04:16.969Z,99.99
2018-07-21T01:05:16.983Z,99.99
2018-07-21T01:07:09.938Z,99.99
2018-07-21T01:08:09.939Z,99.99
2018-07-21T01:10:02.869Z,99.99
2018-07-21T01:11:02.914Z,99.99
2018-07-21T01:12:55.836Z,99.99
2018-07-21T01:13:55.832Z,99.99
2018-07-21T01:15:48.768Z,99.99
2018-07-21T01:16:48.780Z,99.99
2018-07-21T01:18:41.736Z,99.99
2018-07-21T01:19:41.736Z,99.99
2018-07-21T01:21:34.681Z,99.99
2018-07-21T01:22:34.678Z,99.99
2018-07-21T01:24:27.609Z,99.99
2018-07-21T01:25:27.629Z,99.99
2018-07-21T01:27:20.581Z,99.99
2018-07-21T01:28:20.573Z,99.99
2018-07-21T01:30:13.517Z,99.99
2018-07-21T01:31:13.527Z,99.99
2018-07-21T01:33:06.475Z,99.99
2018-07-21T01:34:06.488Z,99.99
2018-07-21T01:35:59.407Z,99.99
2018-07-21T01:36:59.429Z,99.99
2018-07-21T01:38:52.376Z,99.99
2018-07-21T01:39:52.373Z,99.99
2018-07-21T01:41:45.326Z,99.99
2018-07-21T01:42:45.327Z,99.99
2018-07-21T01:44:38.255Z,99.99
2018-07-21T01:45:38.271Z,99.99
2018-07-21T01:47:31.227Z,99.99
2018-07-21T01:48:31.222Z,99.99
2018-07-21T01:50:24.152Z,99.99
2018-07-21T01:51:24.164Z,99.99
2018-07-21T01:53:17.118Z,99.99
2018-07-21T01:54:17.117Z,99.99
2018-07-21T02:24:08.528Z,99.99
2018-07-21T02:25:08.530Z,99.99
2018-07-21T02:27:01.461Z,99.99
2018-07-21T02:28:01.453Z,99.99
2018-07-21T02:29:54.385Z,99.99
2018-07-21T02:30:54.401Z,99.99
2018-07-21T02:32:47.336Z,99.99
2018-07-21T02:33:47.330Z,99.99
2018-07-21T02:35:40.254Z,99.99
2018-07-21T02:36:40.273Z,99.99
2018-07-21T02:38:33.222Z,99.99
2018-07-21T02:39:33.215Z,99.99
2018-07-21T02:41:26.145Z,99.99
2018-07-21T02:42:26.167Z,99.99
2018-07-21T02:44:19.118Z,99.99
2018-07-21T02:45:19.100Z,99.99
2018-07-21T02:47:12.053Z,99.99
2018-07-21T02:48:12.047Z,99.99
2018-07-21T02:50:04.967Z,99.99
2018-07-21T02:51:04.983Z,99.99
2018-07-21T02:52:57.937Z,99.99
2018-07-21T02:53:57.936Z,99.99
2018-07-21T02:55:50.860Z,99.99
2018-07-21T02:56:50.880Z,99.99
2018-07-21T02:58:43.830Z,99.99
2018-07-21T02:59:43.824Z,99.99
2018-07-21T03:01:36.753Z,99.99
2018-07-21T03:02:36.773Z,99.99
2018-07-21T03:04:29.721Z,99.99
2018-07-21T03:05:29.719Z,99.99
2018-07-21T03:07:22.684Z,99.99
2018-07-21T03:08:22.668Z,99.99
2018-07-21T03:10:15.595Z,99.99
2018-07-21T03:11:15.612Z,99.99
2018-07-21T03:13:08.575Z,99.99
2018-07-21T03:14:08.557Z,99.99
2018-07-21T03:16:01.519Z,99.99
2018-07-21T03:17:01.506Z,99.99
2018-07-21T03:18:54.454Z,99.99
2018-07-21T03:19:54.450Z,99.99
2018-07-21T03:21:47.381Z,99.99
2018-07-21T03:22:47.396Z,99.99
2018-07-21T03:24:40.344Z,99.99
2018-07-21T03:25:40.345Z,99.99
2018-07-21T03:27:33.300Z,99.99
2018-07-21T03:28:33.283Z,99.99
2018-07-21T03:30:26.212Z,99.99
2018-07-21T03:31:26.229Z,99.99
2018-07-21T03:33:19.175Z,99.99
2018-07-21T03:34:19.170Z,99.99
2018-07-21T03:36:12.105Z,99.99
2018-07-21T03:37:12.121Z,99.99
2018-07-21T03:39:05.071Z,99.99
2018-07-21T03:40:05.068Z,99.99
2018-07-21T03:41:57.998Z,99.99
2018-07-21T03:42:58.026Z,99.99
2018-07-21T03:44:50.975Z,99.99
2018-07-21T03:45:50.976Z,99.99
2018-07-21T03:47:43.923Z,99.99
2018-07-21T03:48:43.909Z,99.99
2018-07-21T03:50:36.833Z,99.99
2018-07-21T03:51:36.852Z,99.99
2018-07-21T03:53:29.803Z,99.99
2018-07-21T03:54:29.795Z,99.99
2018-07-21T03:56:22.725Z,99.99
2018-07-21T03:57:22.740Z,99.99
2018-07-21T03:59:15.692Z,99.99
2018-07-21T04:00:15.686Z,99.99
2018-07-21T04:02:08.621Z,99.99
2018-07-21T04:03:08.635Z,99.99
2018-07-21T04:05:01.585Z,99.99
2018-07-21T04:06:01.581Z,99.99
2018-07-21T04:07:54.537Z,99.99
2018-07-21T04:08:54.535Z,99.99
2018-07-21T04:10:47.479Z,99.99
2018-07-21T04:11:47.473Z,99.99
2018-07-21T04:13:40.424Z,99.99
2018-07-21T04:14:40.415Z,99.99
2018-07-21T04:16:33.404Z,99.99
2018-07-21T04:17:33.366Z,99.99
2018-07-21T04:19:26.313Z,99.99
2018-07-21T04:20:26.317Z,99.99
2018-07-21T04:22:19.239Z,99.99
2018-07-21T04:23:19.257Z,99.99
2018-07-21T04:25:12.205Z,99.99
2018-07-21T04:26:12.205Z,99.99
2018-07-21T04:28:05.150Z,99.99
2018-07-21T04:29:05.147Z,99.99
2018-07-21T04:30:58.119Z,99.99
2018-07-21T04:31:58.101Z,99.99
2018-07-21T04:33:51.044Z,99.99
2018-07-21T04:34:51.044Z,99.99
2018-07-21T04:36:43.968Z,99.99
2018-07-21T04:37:43.990Z,99.99
2018-07-21T04:39:36.933Z,99.99
2018-07-21T04:40:36.935Z,99.99
2018-07-21T04:42:29.864Z,99.99
2018-07-21T04:43:29.879Z,99.99
2018-07-21T04:45:22.836Z,99.99
2018-07-21T04:46:22.838Z,99.99
2018-07-21T04:48:15.759Z,99.99
2018-07-21T04:49:15.768Z,99.99
2018-07-21T04:51:08.724Z,99.99
2018-07-21T04:52:08.716Z,99.99
2018-07-21T04:54:01.748Z,99.99
2018-07-21T04:55:01.676Z,99.99
2018-07-21T04:56:54.608Z,99.99
2018-07-21T04:57:54.620Z,99.99
2018-07-21T04:59:47.569Z,99.99
2018-07-21T05:00:47.672Z,99.99
2018-07-21T05:02:40.507Z,99.99
2018-07-21T05:03:40.522Z,99.99
2018-07-21T05:05:33.471Z,99.99
2018-07-21T05:06:33.467Z,99.99
2018-07-21T05:08:26.397Z,99.99
2018-07-21T05:09:26.410Z,99.99
2018-07-21T05:11:19.357Z,99.99
2018-07-21T05:12:19.357Z,99.99
2018-07-21T05:14:12.315Z,99.99
2018-07-21T05:15:12.310Z,99.99
2018-07-21T05:17:05.240Z,99.99
2018-07-21T05:18:05.257Z,99.99
2018-07-21T05:19:58.219Z,99.99
2018-07-21T05:20:58.199Z,99.99
2018-07-21T05:22:51.135Z,99.99
2018-07-21T05:23:51.149Z,99.99
2018-07-21T05:25:44.103Z,99.99
2018-07-21T05:26:44.098Z,99.99
2018-07-21T05:28:37.029Z,99.99
2018-07-21T05:29:37.046Z,99.99
2018-07-21T05:31:29.996Z,99.99
2018-07-21T05:32:29.991Z,99.99
2018-07-21T05:34:22.945Z,99.99
2018-07-21T05:35:22.942Z,99.99
2018-07-21T05:37:15.874Z,99.99
2018-07-21T05:38:15.890Z,99.99
2018-07-21T05:40:08.846Z,99.99
2018-07-21T05:41:08.836Z,99.99
2018-07-21T05:43:01.772Z,99.99
2018-07-21T05:44:01.788Z,99.99
2018-07-21T05:45:54.750Z,99.99
2018-07-21T05:46:54.744Z,99.99
2018-07-21T05:48:47.672Z,99.99
2018-07-21T05:49:47.690Z,99.99
2018-07-21T05:51:40.643Z,99.99
2018-07-21T05:52:40.646Z,99.99
2018-07-21T05:54:33.598Z,99.99
2018-07-21T05:55:33.600Z,99.99
2018-07-21T05:57:26.523Z,99.99
2018-07-21T05:58:26.540Z,99.99
2018-07-21T06:00:19.492Z,99.99
2018-07-21T06:01:19.492Z,99.99
2018-07-21T06:03:12.422Z,99.99
2018-07-21T06:04:12.446Z,99.99
2018-07-21T06:06:05.401Z,99.99
2018-07-21T06:07:05.403Z,99.99
2018-07-21T06:08:58.336Z,99.99
2018-07-21T06:09:58.355Z,99.99
2018-07-21T06:11:51.303Z,99.99
2018-07-21T06:12:51.306Z,99.99
2018-07-21T06:14:44.261Z,99.99
2018-07-21T06:15:44.258Z,99.99
2018-07-21T06:17:37.192Z,99.99
2018-07-21T06:18:37.232Z,99.99
2018-07-21T06:20:30.166Z,99.99
2018-07-21T06:21:30.161Z,99.99
2018-07-21T06:23:23.095Z,98.20
2018-07-21T06:24:23.120Z,97.72
2018-07-21T06:26:16.072Z,91.22
2018-07-21T06:27:16.074Z,86.47
2018-07-21T06:29:09.022Z,78.54
2018-07-21T06:30:09.023Z,74.98
2018-07-21T06:32:01.981Z,69.81
2018-07-21T06:33:01.980Z,67.99
2018-07-21T06:34:54.951Z,68.09
2018-07-21T06:35:54.936Z,67.15
2018-07-21T06:37:47.876Z,62.83
2018-07-21T06:38:47.893Z,62.47
2018-07-21T06:40:40.852Z,61.37
2018-07-21T06:41:40.854Z,62.05
2018-07-21T06:43:33.789Z,62.67
2018-07-21T06:44:33.812Z,64.78
2018-07-21T06:46:26.770Z,66.24
2018-07-21T06:47:26.771Z,68.05
2018-07-21T06:49:19.706Z,70.32
2018-07-21T06:50:19.734Z,69.51
2018-07-21T06:52:12.688Z,69.90
2018-07-21T06:53:12.689Z,70.39
2018-07-21T06:55:05.655Z,72.67
2018-07-21T06:56:05.657Z,73.26
2018-07-21T06:57:58.593Z,75.16
2018-07-21T06:58:58.623Z,75.65
2018-07-21T07:00:51.569Z,75.32
2018-07-21T07:01:51.568Z,74.93
2018-07-21T07:03:44.512Z,75.23
2018-07-21T07:04:44.574Z,74.74
2018-07-21T07:06:37.486Z,74.10
2018-07-21T07:07:37.491Z,73.61
2018-07-21T07:09:30.433Z,73.52
2018-07-21T07:10:30.455Z,73.52
2018-07-21T07:12:23.410Z,70.29
2018-07-21T07:13:23.410Z,69.70
2018-07-21T07:15:16.370Z,69.74
2018-07-21T07:16:16.412Z,68.22
2018-07-21T07:18:09.306Z,66.08
2018-07-21T07:19:09.337Z,64.91
2018-07-21T07:21:02.283Z,63.55
2018-07-21T07:22:02.284Z,61.73
2018-07-21T07:23:55.224Z,59.02
2018-07-21T07:24:55.244Z,55.93
2018-07-21T07:26:48.198Z,56.38
2018-07-21T07:27:48.202Z,55.27
2018-07-21T07:29:41.144Z,55.80
2018-07-21T07:30:41.168Z,56.10
2018-07-21T07:32:34.129Z,56.10
2018-07-21T07:33:34.131Z,55.15
2018-07-21T07:35:27.099Z,54.20
2018-07-21T07:36:27.098Z,53.88
2018-07-21T07:38:20.052Z,55.15
2018-07-21T07:39:20.069Z,54.66
2018-07-21T07:41:13.032Z,54.66
2018-07-21T07:42:13.041Z,54.07
2018-07-21T07:44:05.972Z,51.66
2018-07-21T07:45:05.999Z,51.86
2018-07-21T07:46:58.965Z,52.05
2018-07-21T07:47:58.964Z,52.64
2018-07-21T07:49:51.907Z,53.36
2018-07-21T07:50:51.930Z,52.51
2018-07-21T07:52:44.897Z,51.95
2018-07-21T07:53:44.897Z,50.95
2018-07-21T07:55:37.859Z,52.02
2018-07-21T07:56:37.869Z,51.90
2018-07-21T07:58:30.809Z,51.02
2018-07-21T07:59:30.831Z,51.04
2018-07-21T08:01:23.798Z,51.92
2018-07-21T08:02:23.803Z,52.68
2018-07-21T08:04:16.743Z,52.48
2018-07-21T08:05:16.765Z,51.90
2018-07-21T08:07:09.730Z,54.06
2018-07-21T08:08:09.734Z,54.26
2018-07-21T08:10:02.676Z,54.97
2018-07-21T08:11:02.699Z,53.99
2018-07-21T08:12:55.664Z,54.26
2018-07-21T08:13:55.667Z,55.04
2018-07-21T08:15:48.629Z,55.33
2018-07-21T08:16:48.629Z,55.23
2018-07-21T08:18:41.585Z,53.77
2018-07-21T08:19:41.609Z,52.73
2018-07-21T08:21:34.563Z,52.70
2018-07-21T08:22:34.575Z,53.11
2018-07-21T08:24:27.513Z,54.46
2018-07-21T08:25:27.535Z,54.16
2018-07-21T08:27:20.494Z,53.97
2018-07-21T08:28:20.498Z,54.46
2018-07-21T08:30:13.439Z,54.43
2018-07-21T08:31:13.463Z,54.82
2018-07-21T08:33:06.421Z,55.69
2018-07-21T08:34:06.425Z,55.69
2018-07-21T08:35:59.391Z,54.21
2018-07-21T08:36:59.390Z,53.91
2018-07-21T08:38:52.333Z,54.93
2018-07-21T08:39:52.353Z,56.49
2018-07-21T08:41:45.315Z,57.56
2018-07-21T08:42:45.316Z,57.46
2018-07-21T08:44:38.262Z,58.14
2018-07-21T08:45:38.278Z,57.85
2018-07-21T08:47:31.239Z,57.20
2018-07-21T08:48:31.241Z,55.54
2018-07-21T08:50:24.183Z,55.15
2018-07-21T08:51:24.227Z,55.27
2018-07-21T08:53:17.174Z,55.25
2018-07-21T08:54:17.183Z,56.90
2018-07-21T08:56:10.159Z,56.64
2018-07-21T08:57:10.134Z,56.25
2018-07-21T08:59:03.079Z,54.72
2018-07-21T09:00:03.099Z,54.23
2018-07-21T09:01:56.075Z,54.33
2018-07-21T09:02:56.061Z,55.21
2018-07-21T09:04:49.030Z,54.33
2018-07-21T09:05:49.093Z,55.30
2018-07-21T09:07:42.009Z,55.50
2018-07-21T09:08:42.017Z,54.82
2018-07-21T09:10:34.949Z,52.89
2018-07-21T09:11:34.971Z,52.60
2018-07-21T09:13:27.930Z,52.89
2018-07-21T09:14:27.940Z,52.53
2018-07-21T09:16:20.916Z,50.78
2018-07-21T09:17:20.917Z,50.97
2018-07-21T09:19:13.863Z,50.97
2018-07-21T09:20:13.888Z,50.99
2018-07-21T09:22:06.863Z,50.99
2018-07-21T09:23:06.856Z,49.44
2018-07-21T09:24:59.798Z,49.93
2018-07-21T09:25:59.821Z,49.73
2018-07-21T09:27:52.798Z,49.63
2018-07-21T09:28:52.800Z,50.90
2018-07-21T09:30:45.756Z,49.83
2018-07-21T09:31:45.766Z,49.34
2018-07-21T09:33:38.725Z,49.24
2018-07-21T09:34:38.727Z,49.80
2018-07-21T09:36:31.690Z,49.80
2018-07-21T09:37:31.687Z,50.58
2018-07-21T09:39:24.630Z,51.82
2018-07-21T09:40:24.650Z,52.02
2018-07-21T09:42:17.610Z,50.56
2018-07-21T09:43:17.613Z,50.07
2018-07-21T09:45:10.547Z,48.58
2018-07-21T09:46:10.570Z,47.71
2018-07-21T09:48:03.532Z,48.88
2018-07-21T09:49:03.546Z,48.12
2018-07-21T09:50:56.480Z,48.88
2018-07-21T09:51:56.500Z,49.66
2018-07-21T09:53:49.458Z,49.95
2018-07-21T09:54:49.461Z,48.78
2018-07-21T09:56:42.424Z,49.95
2018-07-21T09:57:42.419Z,49.10
2018-07-21T09:59:37.742Z,49.29
2018-07-21T10:00:35.387Z,48.12
2018-07-21T10:02:28.346Z,46.88
2018-07-21T10:03:28.341Z,46.88
2018-07-21T10:05:21.282Z,47.07
2018-07-21T10:06:21.306Z,47.46
2018-07-21T10:08:14.264Z,48.93
2018-07-21T10:09:14.266Z,47.66
2018-07-21T10:11:07.215Z,46.39
2018-07-21T10:12:07.231Z,46.97
2018-07-21T10:14:00.184Z,46.80
2018-07-21T10:15:00.189Z,46.80
2018-07-21T10:16:53.144Z,46.41
2018-07-21T10:17:53.155Z,46.41
2018-07-21T10:19:46.092Z,46.30
2018-07-21T10:20:46.107Z,46.20
2018-07-21T10:22:39.071Z,47.66
2018-07-21T10:23:39.067Z,47.95
2018-07-21T10:25:32.008Z,48.63
2018-07-21T10:26:32.032Z,48.14
2018-07-21T10:28:25.039Z,47.05
2018-07-21T10:29:24.992Z,47.27
2018-07-21T10:31:17.937Z,48.73
2018-07-21T10:32:17.956Z,48.24
2018-07-21T10:34:10.922Z,46.41
2018-07-21T10:35:10.918Z,46.61
2018-07-21T10:37:03.889Z,45.95
2018-07-21T10:38:03.904Z,45.07
2018-07-21T10:39:56.834Z,44.09
2018-07-21T10:40:56.850Z,43.80
2018-07-21T10:42:49.824Z,42.94
2018-07-21T10:43:49.821Z,44.58
2018-07-21T10:45:42.763Z,44.12
2018-07-21T10:46:42.787Z,44.51
2018-07-21T10:48:35.743Z,43.04
2018-07-21T10:49:35.746Z,42.85
2018-07-21T10:51:28.682Z,41.85
2018-07-21T10:52:28.707Z,41.95
2018-07-21T10:54:21.669Z,41.85
2018-07-21T10:55:21.669Z,41.38
2018-07-21T10:57:14.627Z,41.38
2018-07-21T10:58:14.632Z,41.87
2018-07-21T11:00:07.641Z,41.87
2018-07-21T11:01:07.591Z,41.21
2018-07-21T11:03:00.562Z,41.77
2018-07-21T11:04:00.553Z,41.85
2018-07-21T11:05:53.498Z,42.26
2018-07-21T11:06:53.523Z,42.26
2018-07-21T11:08:46.479Z,42.36
2018-07-21T11:09:46.481Z,41.77
2018-07-21T11:11:39.424Z,41.02
2018-07-21T11:12:39.446Z,39.65
2018-07-21T11:14:32.412Z,39.26
2018-07-21T11:15:32.470Z,38.89
2018-07-21T11:17:25.385Z,38.09
2018-07-21T11:18:25.385Z,38.77
2018-07-21T11:20:18.324Z,38.57
2018-07-21T11:21:18.344Z,38.55
2018-07-21T11:23:11.310Z,38.96
2018-07-21T11:24:11.306Z,39.16
2018-07-21T11:26:04.276Z,39.45
2018-07-21T11:27:04.267Z,39.65
2018-07-21T11:28:57.224Z,39.43
2018-07-21T11:29:57.223Z,39.33
2018-07-21T11:31:50.168Z,39.23
2018-07-21T11:32:50.194Z,40.21
2018-07-21T11:34:43.152Z,41.58
2018-07-21T11:35:43.355Z,41.97
2018-07-21T11:37:36.115Z,40.01
2018-07-21T11:38:36.114Z,40.33
2018-07-21T11:40:29.056Z,39.65
2018-07-21T11:41:29.075Z,40.33
2018-07-21T11:43:22.036Z,40.04
2018-07-21T11:44:22.040Z,40.14
2018-07-21T11:46:14.981Z,39.55
2018-07-21T11:47:15.002Z,38.87
2018-07-21T11:49:07.958Z,39.33
2018-07-21T11:50:07.963Z,39.53
2018-07-21T11:52:00.903Z,39.45
2018-07-21T11:53:00.937Z,38.69
2018-07-21T11:54:53.892Z,38.89
2018-07-21T11:55:53.894Z,38.89
2018-07-21T11:57:46.850Z,39.78
2018-07-21T11:58:46.852Z,39.39
2018-07-21T12:00:39.803Z,39.67
2018-07-21T12:01:39.823Z,39.47
2018-07-21T12:03:32.781Z,40.45
2018-07-21T12:04:32.784Z,40.84
2018-07-21T12:06:25.722Z,41.35
2018-07-21T12:07:25.746Z,41.25
2018-07-21T12:09:18.707Z,41.27
2018-07-21T12:10:18.720Z,40.97
2018-07-21T12:12:11.651Z,39.88
2018-07-21T12:13:11.824Z,40.56
2018-07-21T12:15:04.636Z,40.94
2018-07-21T12:16:04.639Z,41.25
2018-07-21T12:17:57.599Z,40.74
2018-07-21T12:18:57.600Z,41.50
2018-07-21T12:20:50.546Z,42.07
2018-07-21T12:21:50.558Z,42.26
2018-07-21T12:23:43.524Z,42.36
2018-07-21T12:24:43.522Z,43.04
2018-07-21T12:26:36.492Z,41.23
2018-07-21T12:27:36.536Z,40.86
2018-07-21T12:29:29.464Z,39.53
2018-07-21T12:30:29.465Z,39.04
2018-07-21T12:32:22.406Z,39.43
2018-07-21T12:33:22.427Z,39.82
2018-07-21T12:35:15.391Z,40.70
2018-07-21T12:36:15.394Z,39.82
2018-07-21T12:38:08.357Z,40.19
2018-07-21T12:39:08.363Z,40.31
2018-07-21T12:41:01.307Z,40.68
2018-07-21T12:42:01.323Z,41.27
2018-07-21T12:43:54.283Z,40.48
2018-07-21T12:44:54.347Z,40.19
2018-07-21T12:46:47.226Z,40.78
2018-07-21T12:47:47.251Z,39.61
2018-07-21T12:49:40.212Z,41.17
2018-07-21T12:50:40.216Z,40.09
2018-07-21T12:52:33.157Z,39.80
2018-07-21T12:53:33.177Z,39.82
2018-07-21T12:55:26.139Z,39.51
2018-07-21T12:56:26.140Z,39.92
2018-07-21T12:58:19.103Z,39.90
2018-07-21T12:59:19.113Z,39.80
2018-07-21T13:01:12.047Z,40.37
2018-07-21T13:02:12.072Z,40.88
2018-07-21T13:04:05.028Z,41.17
2018-07-21T13:05:05.033Z,41.09
2018-07-21T13:06:57.981Z,40.01
2018-07-21T13:07:58.019Z,40.11
2018-07-21T13:09:51.037Z,40.03
2018-07-21T13:10:50.960Z,39.56
2018-07-21T13:12:43.949Z,39.09
2018-07-21T13:13:43.952Z,38.92
2018-07-21T13:15:36.955Z,39.90
2018-07-21T13:16:36.959Z,38.53
2018-07-21T13:18:30.076Z,37.35
2018-07-21T13:19:29.992Z,38.62
2018-07-21T13:21:22.955Z,38.31
2018-07-21T13:22:22.957Z,38.49
2018-07-21T13:24:15.926Z,39.53
2018-07-21T13:25:15.925Z,40.31
2018-07-21T13:27:08.903Z,41.27
2018-07-21T13:28:08.926Z,41.27
2018-07-21T13:30:01.874Z,40.31
2018-07-21T13:31:01.931Z,39.04
2018-07-21T13:32:54.937Z,40.21
2018-07-21T13:33:54.926Z,40.70
2018-07-21T13:35:47.900Z,41.07
2018-07-21T13:36:47.873Z,40.48
2018-07-21T13:38:40.904Z,40.21
2018-07-21T13:39:40.879Z,40.31
2018-07-21T13:41:33.843Z,39.54
2018-07-21T13:42:33.850Z,38.29
2018-07-21T13:44:26.882Z,37.71
2018-07-21T13:45:26.865Z,37.82
2018-07-21T13:47:19.880Z,37.82
2018-07-21T13:48:19.875Z,37.21
2018-07-21T13:50:12.847Z,37.82
2018-07-21T13:51:12.830Z,37.05
2018-07-21T13:53:05.771Z,37.13
2018-07-21T13:54:05.841Z,38.31
2018-07-21T13:55:58.858Z,36.76
2018-07-21T13:56:58.837Z,37.15
2018-07-21T13:58:51.844Z,37.54
2018-07-21T13:59:51.860Z,36.74
2018-07-21T14:01:44.839Z,37.52
2018-07-21T14:02:44.825Z,38.23
2018-07-21T14:04:37.745Z,37.04
2018-07-21T14:05:37.751Z,37.33
2018-07-21T14:07:30.686Z,37.52
2018-07-21T14:08:30.710Z,37.21
2018-07-21T14:10:23.682Z,37.98
2018-07-21T14:11:23.681Z,37.61
2018-07-21T14:13:16.688Z,38.59
2018-07-21T14:14:16.700Z,37.81
2018-07-21T14:16:09.661Z,36.94
2018-07-21T14:17:09.630Z,37.41
2018-07-21T14:19:02.599Z,38.41
2018-07-21T14:20:02.594Z,38.02
2018-07-21T14:21:55.553Z,37.43
2018-07-21T14:22:55.559Z,37.35
2018-07-21T14:24:48.548Z,36.84
2018-07-21T14:25:48.531Z,37.04
2018-07-21T14:27:41.552Z,37.23
2018-07-21T14:28:41.556Z,36.94
2018-07-21T14:30:34.547Z,37.82
2018-07-21T14:31:34.620Z,38.00
2018-07-21T14:33:27.571Z,38.51
2018-07-21T14:34:27.539Z,37.52
2018-07-21T14:36:20.664Z,36.74
2018-07-21T14:37:20.526Z,38.20
2018-07-21T14:39:13.611Z,38.20
2018-07-21T14:40:13.581Z,37.31
2018-07-21T14:42:06.511Z,38.86
2018-07-21T14:43:06.512Z,39.17
2018-07-21T14:44:59.474Z,39.62
2018-07-21T14:45:59.480Z,40.31
2018-07-21T14:47:52.425Z,40.78
2018-07-21T14:48:52.450Z,41.36
2018-07-21T14:50:45.414Z,40.17
2018-07-21T14:51:45.417Z,39.98
2018-07-21T14:53:38.360Z,40.19
2018-07-21T14:54:38.451Z,39.90
2018-07-21T14:56:31.353Z,39.80
2018-07-21T14:57:31.354Z,39.61
2018-07-21T14:59:24.310Z,39.41
2018-07-21T15:00:24.312Z,40.09
2018-07-21T15:02:17.270Z,41.33
2018-07-21T15:03:17.291Z,40.84
2018-07-21T15:05:10.248Z,41.35
2018-07-21T15:06:10.253Z,40.95
2018-07-21T15:08:03.199Z,39.59
2018-07-21T15:09:03.222Z,39.51
2018-07-21T15:10:56.185Z,39.80
2018-07-21T15:11:56.188Z,39.92
2018-07-21T15:13:49.129Z,39.53
2018-07-21T15:14:49.150Z,39.61
2018-07-21T15:16:42.122Z,39.51
2018-07-21T15:17:42.131Z,38.92
2018-07-21T15:19:35.078Z,39.02
2018-07-21T15:20:35.080Z,39.41
2018-07-21T15:22:28.029Z,38.94
2018-07-21T15:23:28.053Z,39.02
2018-07-21T15:25:21.013Z,38.94
2018-07-21T15:26:21.015Z,38.84
2018-07-21T15:28:13.957Z,38.92
2018-07-21T15:29:13.976Z,39.41
2018-07-21T15:31:06.949Z,40.56
2018-07-21T15:32:06.946Z,40.86
2018-07-21T15:33:59.883Z,41.52
2018-07-21T15:34:59.907Z,41.52
2018-07-21T15:36:52.869Z,42.38
2018-07-21T15:37:52.879Z,41.89
2018-07-21T15:39:45.842Z,42.36
2018-07-21T15:40:45.834Z,42.55
2018-07-21T15:42:38.779Z,42.54
2018-07-21T15:43:38.801Z,42.54
2018-07-21T15:45:31.760Z,43.80
2018-07-21T15:46:31.767Z,42.93
2018-07-21T15:48:24.702Z,43.80
2018-07-21T15:49:24.722Z,44.07
2018-07-21T15:51:17.681Z,43.98
2018-07-21T15:52:17.686Z,44.17
2018-07-21T15:54:10.634Z,45.12
2018-07-21T15:55:10.652Z,45.22
2018-07-21T15:57:03.614Z,45.71
2018-07-21T15:58:03.617Z,45.49
2018-07-21T15:59:56.572Z,46.08
2018-07-21T16:00:56.577Z,46.17
2018-07-21T16:02:49.511Z,46.37
2018-07-21T16:03:49.535Z,46.56
2018-07-21T16:05:42.499Z,47.15
2018-07-21T16:06:42.502Z,47.15
2018-07-21T16:08:35.464Z,47.22
2018-07-21T16:09:35.523Z,47.32
2018-07-21T16:11:28.424Z,47.42
2018-07-21T16:12:28.425Z,46.54
2018-07-21T16:14:21.372Z,46.73
2018-07-21T16:15:21.405Z,45.95
2018-07-21T16:17:14.361Z,46.05
2018-07-21T16:18:14.353Z,46.83
2018-07-21T16:20:07.301Z,47.59
2018-07-21T16:21:07.312Z,48.56
2018-07-21T16:23:00.246Z,50.90
2018-07-21T16:24:00.264Z,51.07
2018-07-21T16:25:53.219Z,51.55
2018-07-21T16:26:53.216Z,51.55
2018-07-21T16:28:46.165Z,51.45
2018-07-21T16:29:46.182Z,51.84
2018-07-21T16:31:39.143Z,52.43
2018-07-21T16:32:39.144Z,52.23
2018-07-21T16:34:32.087Z,52.14
2018-07-21T16:35:32.103Z,52.04
2018-07-21T16:37:25.058Z,52.26
2018-07-21T16:38:25.058Z,51.84
2018-07-21T16:40:18.088Z,52.06
2018-07-21T16:41:18.018Z,52.06
2018-07-21T16:43:10.956Z,51.77
2018-07-21T16:44:10.973Z,52.94
2018-07-21T16:46:03.939Z,52.65
2018-07-21T16:47:03.931Z,53.14
2018-07-21T16:48:56.870Z,53.79
2018-07-21T16:49:56.894Z,54.21
2018-07-21T16:51:49.848Z,55.54
2018-07-21T16:52:49.849Z,56.41
2018-07-21T16:54:42.792Z,55.44
2018-07-21T16:55:42.810Z,55.64
2018-07-21T16:57:35.768Z,55.25
2018-07-21T16:58:35.768Z,55.54
2018-07-21T17:00:28.725Z,56.68
2018-07-21T17:01:28.726Z,57.56
2018-07-21T17:03:21.662Z,57.65
2018-07-21T17:04:21.684Z,57.56
2018-07-21T17:06:14.634Z,58.04
2018-07-21T17:07:14.639Z,58.62
2018-07-21T17:09:07.574Z,58.62
2018-07-21T17:10:07.595Z,58.62
2018-07-21T17:12:00.553Z,58.23
2018-07-21T17:13:00.548Z,58.23
2018-07-21T17:14:53.487Z,57.85
2018-07-21T17:15:53.504Z,56.87
2018-07-21T17:17:46.460Z,56.39
2018-07-21T17:18:46.462Z,56.68
2018-07-21T17:20:39.418Z,56.59
2018-07-21T17:21:39.420Z,56.29
2018-07-21T17:23:32.359Z,56.68
2018-07-21T17:24:32.376Z,56.85
2018-07-21T17:26:25.337Z,57.23
2018-07-21T17:27:25.338Z,56.77
2018-07-21T17:29:18.310Z,57.23
2018-07-21T17:30:18.290Z,57.53
2018-07-21T17:32:11.240Z,58.14
2018-07-21T17:33:11.245Z,58.43
2018-07-21T17:35:04.181Z,58.33
2018-07-21T17:36:04.198Z,58.53
2018-07-21T17:37:57.154Z,58.43
2018-07-21T17:38:57.156Z,57.56
2018-07-21T17:40:50.115Z,58.53
2018-07-21T17:41:50.116Z,58.33
2018-07-21T17:43:43.053Z,58.43
2018-07-21T17:44:43.099Z,57.36
2018-07-21T17:46:36.023Z,57.56
2018-07-21T17:47:36.025Z,57.56
2018-07-21T17:49:28.956Z,57.78
2018-07-21T17:50:29.049Z,57.56
2018-07-21T17:52:21.977Z,57.36
2018-07-21T17:53:21.935Z,57.75
2018-07-21T17:55:14.869Z,57.56
2018-07-21T17:56:14.890Z,57.56
2018-07-21T17:58:07.871Z,57.85
2018-07-21T17:59:07.848Z,56.87
2018-07-21T18:01:00.807Z,56.39
2018-07-21T18:02:00.801Z,56.77
2018-07-21T18:03:53.741Z,57.46
2018-07-21T18:04:53.761Z,56.87
2018-07-21T18:06:46.712Z,56.68
2018-07-21T18:07:46.714Z,56.68
2018-07-21T18:09:39.649Z,56.49
2018-07-21T18:10:39.672Z,56.59
2018-07-21T18:12:32.624Z,56.81
2018-07-21T18:13:32.627Z,56.59
2018-07-21T18:15:25.557Z,56.39
2018-07-21T18:16:25.582Z,56.61
2018-07-21T18:18:18.537Z,57.39
2018-07-21T18:19:18.534Z,56.77
2018-07-21T18:21:11.492Z,56.29
2018-07-21T18:22:11.495Z,56.10
2018-07-21T18:24:04.429Z,56.77
2018-07-21T18:25:04.449Z,56.97
2018-07-21T18:26:57.407Z,57.46
2018-07-21T18:27:57.407Z,57.26
2018-07-21T18:29:50.344Z,57.43
2018-07-21T18:30:50.360Z,57.14
2018-07-21T18:32:43.316Z,57.72
2018-07-21T18:33:43.318Z,57.53
2018-07-21T18:35:36.253Z,58.31
2018-07-21T18:36:36.277Z,59.28
2018-07-21T18:38:29.229Z,60.44
2018-07-21T18:39:29.229Z,61.00
2018-07-21T18:41:22.183Z,61.97
2018-07-21T18:42:22.188Z,63.04
2018-07-21T18:44:15.126Z,63.39
2018-07-21T18:45:15.161Z,64.11
2018-07-21T18:47:08.100Z,65.05
2018-07-21T18:48:08.098Z,65.33
2018-07-21T18:50:01.037Z,66.40
2018-07-21T18:51:01.057Z,67.47
2018-07-21T18:52:54.009Z,69.02
2018-07-21T18:53:54.017Z,69.96
2018-07-21T18:55:46.952Z,71.03
2018-07-21T18:56:46.969Z,71.32
2018-07-21T18:58:39.922Z,73.42
2018-07-21T18:59:39.976Z,74.10
2018-07-21T19:01:32.886Z,74.39